Pride — ZDFD7 — position and weather

sailwx.info

Track history (hours):
 
Tides and Currents Weather Stations Pressure Air Temp Water Temp Dewpoint Dewpoint Depression Visibility Wind Speed Wind Dir Waves Ship Positions

Pride

Last reported at 2018-Jan-20 13:24 UTC. Time now 2018-Jan-20 21:18 UTC.
Position N 50°02' W 003°51'.

Length 88 m; draft 5 m.

Type: Cargo ship. MMSI: 236166000.

Date/timePositionNaut miles runAvg speedWind from/ knotsBaromVisibWave heightAir tempDewpointWater temp
2018-Jan-20 13:24N 50°02' W 003°51'3 6.7
2018-Jan-20 13:00N 50°04' W 003°48'4 6.9
2018-Jan-20 12:29N 50°06' W 003°44'3 7.1
2018-Jan-20 12:00N 50°09' W 003°40'3 7.0
2018-Jan-20 11:30N 50°11' W 003°36'4 7.2
2018-Jan-20 11:00N 50°14' W 003°33'4 7.2
2018-Jan-20 10:30N 50°17' W 003°30'4 7.2
2018-Jan-20 10:00N 50°20' W 003°27'4 7.8
2018-Jan-20 09:30N 50°24' W 003°27'4 7.7
2018-Jan-20 09:01N 50°26' W 003°31'0 0.1
2018-Jan-20 08:30N 50°26' W 003°31'0 0.0
2018-Jan-20 08:00N 50°26' W 003°31'0 0.0
2018-Jan-20 07:30N 50°26' W 003°31'0 0.0
2018-Jan-20 07:00N 50°26' W 003°31'0 0.0
2018-Jan-20 06:29N 50°26' W 003°31'0 0.0
2018-Jan-20 05:59N 50°26' W 003°31'0 0.0
2018-Jan-20 05:29N 50°26' W 003°31'0 0.0
2018-Jan-20 04:58N 50°26' W 003°31'0 0.0
2018-Jan-20 04:30N 50°26' W 003°31'0 0.0
2018-Jan-20 03:58N 50°26' W 003°31'0 0.0
2018-Jan-20 03:28N 50°26' W 003°31'0 0.0
2018-Jan-20 02:58N 50°26' W 003°31'0 0.0
2018-Jan-20 02:28N 50°26' W 003°31'0 0.1
2018-Jan-20 02:00N 50°26' W 003°31'0 0.0
2018-Jan-20 01:30N 50°26' W 003°31'0 0.0
2018-Jan-20 01:00N 50°26' W 003°31'0 0.0
2018-Jan-20 00:30N 50°26' W 003°31'0 0.0
2018-Jan-20 00:00N 50°26' W 003°31'0 0.0
2018-Jan-19 23:29N 50°26' W 003°31'0 0.0
2018-Jan-19 23:00N 50°26' W 003°31'0 0.0
2018-Jan-19 22:28N 50°26' W 003°31'0 0.0
2018-Jan-19 21:58N 50°26' W 003°31'0 0.0
2018-Jan-19 21:28N 50°26' W 003°31'0 0.0
2018-Jan-19 20:58N 50°26' W 003°31'0 0.0
2018-Jan-19 20:28N 50°26' W 003°31'0 0.0
2018-Jan-19 19:58N 50°26' W 003°31'0 0.0
2018-Jan-19 19:28N 50°26' W 003°31'0 0.0
2018-Jan-19 18:58N 50°26' W 003°31'0 0.0
2018-Jan-19 18:28N 50°26' W 003°31'0 0.0
2018-Jan-19 17:58N 50°26' W 003°31'0 0.0
2018-Jan-19 17:28N 50°26' W 003°31'0 0.0
2018-Jan-19 16:58N 50°26' W 003°31'0 0.0
2018-Jan-19 16:29N 50°26' W 003°31'0 0.0
2018-Jan-19 15:55N 50°26' W 003°31'0 0.1
2018-Jan-19 15:28N 50°26' W 003°31'2 4.2
2018-Jan-19 15:00N 50°25' W 003°28'4 8.9
2018-Jan-19 14:30N 50°23' W 003°22'5 9.1
2018-Jan-19 14:00N 50°21' W 003°15'4 8.9
2018-Jan-19 13:30N 50°19' W 003°09'4 8.6
2018-Jan-19 13:01N 50°17' W 003°03'3 5.1
2018-Jan-19 12:30N 50°17' W 002°59'2 4.5
2018-Jan-19 12:00N 50°18' W 002°56'2 4.1
2018-Jan-19 11:30N 50°19' W 002°53'2 3.6
2018-Jan-19 11:00N 50°20' W 002°50'2 4.9
2018-Jan-19 10:30N 50°20' W 002°47'3 5.5
2018-Jan-19 10:01N 50°21' W 002°43'3 5.4
2018-Jan-19 09:30N 50°22' W 002°39'3 5.1
2018-Jan-19 09:00N 50°23' W 002°35'2 4.9
2018-Jan-19 08:30N 50°24' W 002°31'2 4.7
2018-Jan-19 08:00N 50°24' W 002°28'15 6.3
2018-Jan-19 05:41N 50°26' W 002°05'1 7.5
2018-Jan-19 05:30N 50°26' W 002°03'4 8.3
2018-Jan-19 05:00N 50°26' W 001°56'4 8.9
2018-Jan-19 04:30N 50°27' W 001°49'2210.1
2018-Jan-19 02:22N 50°29' W 001°15'28 8.3
2018-Jan-18 22:59N 50°31' W 000°32'8 4.6
2018-Jan-18 21:22N 50°31' W 000°20'1 3.7
2018-Jan-18 20:58N 50°32' W 000°18'2 4.2
2018-Jan-18 20:30N 50°32' W 000°14'2 4.7
2018-Jan-18 19:59N 50°32' W 000°11'3 5.3
2018-Jan-18 19:30N 50°32' W 000°07'3 6.0
2018-Jan-18 19:00N 50°32' W 000°02'4 7.2
2018-Jan-18 18:30N 50°33' E 000°03'4 8.1
2018-Jan-18 18:00N 50°34' E 000°10'4 8.7
2018-Jan-18 17:30N 50°36' E 000°16'5 9.1
2018-Jan-18 17:00N 50°37' E 000°23'4 8.8
2018-Jan-18 16:30N 50°38' E 000°30'4 8.4
2018-Jan-18 16:00N 50°40' E 000°36'4 8.4
2018-Jan-18 15:30N 50°42' E 000°41'4 8.2
2018-Jan-18 15:00N 50°45' E 000°46'4 7.8
2018-Jan-18 14:30N 50°47' E 000°52'17 6.3
2018-Jan-18 11:45N 50°57' E 001°13'1 5.4
2018-Jan-18 11:30N 50°58' E 001°15'3 5.2
2018-Jan-18 10:59N 50°60' E 001°18'2 4.8
2018-Jan-18 10:30N 51°01' E 001°21'2 4.8
2018-Jan-18 10:00N 51°03' E 001°24'3 5.3
2018-Jan-18 09:30N 51°05' E 001°27'3 5.7
2018-Jan-18 09:00N 51°07' E 001°31'3 5.9
2018-Jan-18 08:30N 51°08' E 001°34'3 5.8
2018-Jan-18 08:00N 51°10' E 001°38'3 5.5
2018-Jan-18 07:30N 51°12' E 001°41'2 4.9
2018-Jan-18 07:00N 51°14' E 001°44'2 4.7
2018-Jan-18 06:30N 51°16' E 001°46'2 4.1
2018-Jan-18 06:00N 51°18' E 001°47'2 4.1
2018-Jan-18 05:30N 51°19' E 001°49'2 3.4
2018-Jan-18 05:01N 51°21' E 001°50'2 3.1
2018-Jan-18 04:30N 51°22' E 001°51'1 2.9
2018-Jan-18 04:01N 51°24' E 001°52'1 2.7
2018-Jan-18 03:31N 51°25' E 001°53'1 2.2
2018-Jan-18 03:00N 51°26' E 001°54'1 1.8
2018-Jan-18 02:30N 51°27' E 001°54'1 1.4
2018-Jan-18 02:00N 51°27' E 001°55'1 1.1
2018-Jan-18 01:30N 51°28' E 001°56'1 1.7
2018-Jan-18 01:00N 51°28' E 001°57'2 2.3
2018-Jan-18 00:00N 51°30' E 001°59'0 2.1
2018-Jan-17 23:57N 51°30' E 001°59'  
2018-Jan-12 15:00N 58°18' E 008°45'612.0
2018-Jan-12 14:30N 58°23' E 008°48'4 8.7
2018-Jan-12 14:00N 58°28' E 008°47'1 1.6
2018-Jan-12 13:29N 58°28' E 008°49'0 0.0
2018-Jan-12 12:59N 58°28' E 008°49'0 0.0
2018-Jan-12 12:02N 58°28' E 008°49'0 0.0
2018-Jan-12 11:59N 58°28' E 008°49'0 0.0
2018-Jan-12 11:29N 58°28' E 008°49'0 0.0
2018-Jan-12 10:58N 58°28' E 008°49'0 0.0
2018-Jan-12 10:29N 58°28' E 008°49'0 0.0
2018-Jan-12 09:59N 58°28' E 008°49'0 0.0
2018-Jan-12 09:30N 58°28' E 008°49'0 0.0
2018-Jan-12 08:59N 58°28' E 008°49'0 0.0
2018-Jan-12 08:29N 58°28' E 008°49'0 0.0
2018-Jan-12 08:00N 58°28' E 008°49'0 0.0
2018-Jan-12 07:30N 58°28' E 008°49'0 0.0
2018-Jan-12 06:59N 58°28' E 008°49'0 0.0
2018-Jan-12 06:29N 58°28' E 008°49'0 0.0
2018-Jan-12 05:59N 58°28' E 008°49'0 0.0
2018-Jan-12 05:29N 58°28' E 008°49'0 0.0
2018-Jan-12 04:59N 58°28' E 008°49'0 0.0
2018-Jan-12 04:29N 58°28' E 008°49'0 0.0
2018-Jan-12 03:59N 58°28' E 008°49'0 0.0
2018-Jan-12 03:24N 58°28' E 008°49'0 0.0
2018-Jan-12 03:00N 58°28' E 008°49'0 0.0
2018-Jan-12 02:30N 58°28' E 008°49'0 0.0
2018-Jan-12 02:00N 58°28' E 008°49'0 0.0
2018-Jan-12 01:30N 58°28' E 008°49'0 0.0
2018-Jan-12 01:00N 58°28' E 008°49'0 0.0
2018-Jan-12 00:30N 58°28' E 008°49'0 0.0
2018-Jan-12 00:00N 58°28' E 008°49'0 0.0
2018-Jan-11 23:30N 58°28' E 008°49'0 0.0
2018-Jan-11 23:00N 58°28' E 008°49'0 0.0
2018-Jan-11 22:30N 58°28' E 008°49'0 0.0
2018-Jan-11 22:00N 58°28' E 008°49'0 0.0
2018-Jan-11 21:30N 58°28' E 008°49'0 0.0
2018-Jan-11 21:00N 58°28' E 008°49'0 0.0
2018-Jan-11 20:30N 58°28' E 008°49'0 0.0
2018-Jan-11 20:00N 58°28' E 008°49'0 0.0
2018-Jan-11 19:30N 58°28' E 008°49'0 0.0
2018-Jan-11 19:00N 58°28' E 008°49'0 0.0
2018-Jan-11 18:30N 58°28' E 008°49'0 0.0
2018-Jan-11 18:00N 58°28' E 008°49'0 0.0
2018-Jan-11 17:30N 58°28' E 008°49'0 0.0
2018-Jan-11 17:00N 58°28' E 008°49'0 0.0
2018-Jan-11 16:30N 58°28' E 008°49'0 0.0
2018-Jan-11 16:00N 58°28' E 008°49'0 0.0
2018-Jan-11 15:30N 58°28' E 008°49'0 0.0
2018-Jan-11 15:00N 58°28' E 008°49'0 0.0
2018-Jan-11 14:30N 58°28' E 008°49'0 0.0
2018-Jan-11 14:00N 58°28' E 008°49'0 0.0
2018-Jan-11 13:30N 58°28' E 008°49'0 0.0
2018-Jan-11 13:00N 58°28' E 008°49'0 0.0
2018-Jan-11 12:30N 58°28' E 008°49'0 0.0
2018-Jan-11 12:00N 58°28' E 008°49'0 0.0
2018-Jan-11 11:30N 58°28' E 008°49'0 0.0
2018-Jan-11 11:00N 58°28' E 008°49'0 0.0
2018-Jan-11 10:29N 58°28' E 008°49'0 0.0
2018-Jan-11 09:59N 58°28' E 008°49'0 0.0
2018-Jan-11 09:24N 58°28' E 008°49'0 0.0
2018-Jan-11 09:00N 58°28' E 008°49'0 0.0
2018-Jan-11 08:30N 58°28' E 008°49'0 0.0
2018-Jan-11 08:00N 58°28' E 008°49'0 0.0
2018-Jan-11 07:30N 58°28' E 008°49'0 0.0
2018-Jan-11 07:00N 58°28' E 008°49'0 0.0
2018-Jan-11 06:30N 58°28' E 008°49'0 0.0
2018-Jan-11 06:00N 58°28' E 008°49'0 0.0
2018-Jan-11 05:30N 58°28' E 008°49'0 0.0
2018-Jan-11 05:00N 58°28' E 008°49'0 0.0
2018-Jan-11 04:30N 58°28' E 008°49'0 0.0
2018-Jan-11 04:00N 58°28' E 008°49'0 0.0
2018-Jan-11 03:30N 58°28' E 008°49'0 0.0
2018-Jan-11 03:00N 58°28' E 008°49'0 0.0
2018-Jan-11 02:30N 58°28' E 008°49'0 0.0
2018-Jan-11 02:00N 58°28' E 008°49'0 0.0
2018-Jan-11 01:25N 58°28' E 008°49'0 0.0
2018-Jan-11 00:58N 58°28' E 008°49'0 0.0
2018-Jan-11 00:29N 58°28' E 008°49'0 0.0
2018-Jan-11 00:00N 58°28' E 008°49'0 0.0
2018-Jan-10 23:30N 58°28' E 008°49'0 0.0
2018-Jan-10 23:00N 58°28' E 008°49'0 0.0
2018-Jan-10 22:30N 58°28' E 008°49'0 0.0
2018-Jan-10 22:00N 58°28' E 008°49'0 0.0
2018-Jan-10 21:30N 58°28' E 008°49'0 0.0
2018-Jan-10 21:00N 58°28' E 008°49'0 0.0
2018-Jan-10 20:30N 58°28' E 008°49'0 0.0
2018-Jan-10 20:00N 58°28' E 008°49'0 0.0
2018-Jan-10 19:30N 58°28' E 008°49'0 0.0
2018-Jan-10 18:59N 58°28' E 008°49'0 0.0
2018-Jan-10 18:29N 58°28' E 008°49'0 0.0
2018-Jan-10 17:59N 58°28' E 008°49'0 0.0
2018-Jan-10 17:29N 58°28' E 008°49'0 0.0
2018-Jan-10 16:59N 58°28' E 008°49'0 0.0
2018-Jan-10 16:29N 58°28' E 008°49'0 0.0
2018-Jan-10 15:59N 58°28' E 008°49'0 0.0
2018-Jan-10 15:29N 58°28' E 008°49'0 0.0
2018-Jan-10 14:59N 58°28' E 008°49'3 6.4
2018-Jan-10 14:30N 58°25' E 008°47'4 8.6
2018-Jan-10 14:00N 58°22' E 008°53'5 9.7
2018-Jan-10 13:30N 58°20' E 009°01'  
Track history (hours):
 
Tides and Currents Weather Stations Pressure Air Temp Water Temp Dewpoint Dewpoint Depression Visibility Wind Speed Wind Dir Waves Ship Positions

Pride

Last reported at 2018-Jan-20 13:24 UTC. Time now 2018-Jan-20 21:18 UTC.
Position N 50°02' W 003°51'.

Length 88 m; draft 5 m.

Type: Cargo ship. MMSI: 236166000.

Date/timePositionNaut miles runAvg speedWind from/ knotsBaromVisibWave heightAir tempDewpointWater temp
2018-Jan-20 13:24N 50°02' W 003°51'3 6.7
2018-Jan-20 13:00N 50°04' W 003°48'4 6.9
2018-Jan-20 12:29N 50°06' W 003°44'3 7.1
2018-Jan-20 12:00N 50°09' W 003°40'3 7.0
2018-Jan-20 11:30N 50°11' W 003°36'4 7.2
2018-Jan-20 11:00N 50°14' W 003°33'4 7.2
2018-Jan-20 10:30N 50°17' W 003°30'4 7.2
2018-Jan-20 10:00N 50°20' W 003°27'4 7.8
2018-Jan-20 09:30N 50°24' W 003°27'4 7.7
2018-Jan-20 09:01N 50°26' W 003°31'0 0.1
2018-Jan-20 08:30N 50°26' W 003°31'0 0.0
2018-Jan-20 08:00N 50°26' W 003°31'0 0.0
2018-Jan-20 07:30N 50°26' W 003°31'0 0.0
2018-Jan-20 07:00N 50°26' W 003°31'0 0.0
2018-Jan-20 06:29N 50°26' W 003°31'0 0.0
2018-Jan-20 05:59N 50°26' W 003°31'0 0.0
2018-Jan-20 05:29N 50°26' W 003°31'0 0.0
2018-Jan-20 04:58N 50°26' W 003°31'0 0.0
2018-Jan-20 04:30N 50°26' W 003°31'0 0.0
2018-Jan-20 03:58N 50°26' W 003°31'0 0.0
2018-Jan-20 03:28N 50°26' W 003°31'0 0.0
2018-Jan-20 02:58N 50°26' W 003°31'0 0.0
2018-Jan-20 02:28N 50°26' W 003°31'0 0.1
2018-Jan-20 02:00N 50°26' W 003°31'0 0.0
2018-Jan-20 01:30N 50°26' W 003°31'0 0.0
2018-Jan-20 01:00N 50°26' W 003°31'0 0.0
2018-Jan-20 00:30N 50°26' W 003°31'0 0.0
2018-Jan-20 00:00N 50°26' W 003°31'0 0.0
2018-Jan-19 23:29N 50°26' W 003°31'0 0.0
2018-Jan-19 23:00N 50°26' W 003°31'0 0.0
2018-Jan-19 22:28N 50°26' W 003°31'0 0.0
2018-Jan-19 21:58N 50°26' W 003°31'0 0.0
2018-Jan-19 21:28N 50°26' W 003°31'0 0.0
2018-Jan-19 20:58N 50°26' W 003°31'0 0.0
2018-Jan-19 20:28N 50°26' W 003°31'0 0.0
2018-Jan-19 19:58N 50°26' W 003°31'0 0.0
2018-Jan-19 19:28N 50°26' W 003°31'0 0.0
2018-Jan-19 18:58N 50°26' W 003°31'0 0.0
2018-Jan-19 18:28N 50°26' W 003°31'0 0.0
2018-Jan-19 17:58N 50°26' W 003°31'0 0.0
2018-Jan-19 17:28N 50°26' W 003°31'0 0.0
2018-Jan-19 16:58N 50°26' W 003°31'0 0.0
2018-Jan-19 16:29N 50°26' W 003°31'0 0.0
2018-Jan-19 15:55N 50°26' W 003°31'0 0.1
2018-Jan-19 15:28N 50°26' W 003°31'2 4.2
2018-Jan-19 15:00N 50°25' W 003°28'4 8.9
2018-Jan-19 14:30N 50°23' W 003°22'5 9.1
2018-Jan-19 14:00N 50°21' W 003°15'4 8.9
2018-Jan-19 13:30N 50°19' W 003°09'4 8.6
2018-Jan-19 13:01N 50°17' W 003°03'3 5.1
2018-Jan-19 12:30N 50°17' W 002°59'2 4.5
2018-Jan-19 12:00N 50°18' W 002°56'2 4.1
2018-Jan-19 11:30N 50°19' W 002°53'2 3.6
2018-Jan-19 11:00N 50°20' W 002°50'2 4.9
2018-Jan-19 10:30N 50°20' W 002°47'3 5.5
2018-Jan-19 10:01N 50°21' W 002°43'3 5.4
2018-Jan-19 09:30N 50°22' W 002°39'3 5.1
2018-Jan-19 09:00N 50°23' W 002°35'2 4.9
2018-Jan-19 08:30N 50°24' W 002°31'2 4.7
2018-Jan-19 08:00N 50°24' W 002°28'15 6.3
2018-Jan-19 05:41N 50°26' W 002°05'1 7.5
2018-Jan-19 05:30N 50°26' W 002°03'4 8.3
2018-Jan-19 05:00N 50°26' W 001°56'4 8.9
2018-Jan-19 04:30N 50°27' W 001°49'2210.1
2018-Jan-19 02:22N 50°29' W 001°15'28 8.3
2018-Jan-18 22:59N 50°31' W 000°32'8 4.6
2018-Jan-18 21:22N 50°31' W 000°20'1 3.7
2018-Jan-18 20:58N 50°32' W 000°18'2 4.2
2018-Jan-18 20:30N 50°32' W 000°14'2 4.7
2018-Jan-18 19:59N 50°32' W 000°11'3 5.3
2018-Jan-18 19:30N 50°32' W 000°07'3 6.0
2018-Jan-18 19:00N 50°32' W 000°02'4 7.2
2018-Jan-18 18:30N 50°33' E 000°03'4 8.1
2018-Jan-18 18:00N 50°34' E 000°10'4 8.7
2018-Jan-18 17:30N 50°36' E 000°16'5 9.1
2018-Jan-18 17:00N 50°37' E 000°23'4 8.8
2018-Jan-18 16:30N 50°38' E 000°30'4 8.4
2018-Jan-18 16:00N 50°40' E 000°36'4 8.4
2018-Jan-18 15:30N 50°42' E 000°41'4 8.2
2018-Jan-18 15:00N 50°45' E 000°46'4 7.8
2018-Jan-18 14:30N 50°47' E 000°52'17 6.3
2018-Jan-18 11:45N 50°57' E 001°13'1 5.4
2018-Jan-18 11:30N 50°58' E 001°15'3 5.2
2018-Jan-18 10:59N 50°60' E 001°18'2 4.8
2018-Jan-18 10:30N 51°01' E 001°21'2 4.8
2018-Jan-18 10:00N 51°03' E 001°24'3 5.3
2018-Jan-18 09:30N 51°05' E 001°27'3 5.7
2018-Jan-18 09:00N 51°07' E 001°31'3 5.9
2018-Jan-18 08:30N 51°08' E 001°34'3 5.8
2018-Jan-18 08:00N 51°10' E 001°38'3 5.5
2018-Jan-18 07:30N 51°12' E 001°41'2 4.9
2018-Jan-18 07:00N 51°14' E 001°44'2 4.7
2018-Jan-18 06:30N 51°16' E 001°46'2 4.1
2018-Jan-18 06:00N 51°18' E 001°47'2 4.1
2018-Jan-18 05:30N 51°19' E 001°49'2 3.4
2018-Jan-18 05:01N 51°21' E 001°50'2 3.1
2018-Jan-18 04:30N 51°22' E 001°51'1 2.9
2018-Jan-18 04:01N 51°24' E 001°52'1 2.7
2018-Jan-18 03:31N 51°25' E 001°53'1 2.2
2018-Jan-18 03:00N 51°26' E 001°54'1 1.8
2018-Jan-18 02:30N 51°27' E 001°54'1 1.4
2018-Jan-18 02:00N 51°27' E 001°55'1 1.1
2018-Jan-18 01:30N 51°28' E 001°56'1 1.7
2018-Jan-18 01:00N 51°28' E 001°57'2 2.3
2018-Jan-18 00:00N 51°30' E 001°59'0 2.1
2018-Jan-17 23:57N 51°30' E 001°59'  
2018-Jan-12 15:00N 58°18' E 008°45'612.0
2018-Jan-12 14:30N 58°23' E 008°48'4 8.7
2018-Jan-12 14:00N 58°28' E 008°47'1 1.6
2018-Jan-12 13:29N 58°28' E 008°49'0 0.0
2018-Jan-12 12:59N 58°28' E 008°49'0 0.0
2018-Jan-12 12:02N 58°28' E 008°49'0 0.0
2018-Jan-12 11:59N 58°28' E 008°49'0 0.0
2018-Jan-12 11:29N 58°28' E 008°49'0 0.0
2018-Jan-12 10:58N 58°28' E 008°49'0 0.0
2018-Jan-12 10:29N 58°28' E 008°49'0 0.0
2018-Jan-12 09:59N 58°28' E 008°49'0 0.0
2018-Jan-12 09:30N 58°28' E 008°49'0 0.0
2018-Jan-12 08:59N 58°28' E 008°49'0 0.0
2018-Jan-12 08:29N 58°28' E 008°49'0 0.0
2018-Jan-12 08:00N 58°28' E 008°49'0 0.0
2018-Jan-12 07:30N 58°28' E 008°49'0 0.0
2018-Jan-12 06:59N 58°28' E 008°49'0 0.0
2018-Jan-12 06:29N 58°28' E 008°49'0 0.0
2018-Jan-12 05:59N 58°28' E 008°49'0 0.0
2018-Jan-12 05:29N 58°28' E 008°49'0 0.0
2018-Jan-12 04:59N 58°28' E 008°49'0 0.0
2018-Jan-12 04:29N 58°28' E 008°49'0 0.0
2018-Jan-12 03:59N 58°28' E 008°49'0 0.0
2018-Jan-12 03:24N 58°28' E 008°49'0 0.0
2018-Jan-12 03:00N 58°28' E 008°49'0 0.0
2018-Jan-12 02:30N 58°28' E 008°49'0 0.0
2018-Jan-12 02:00N 58°28' E 008°49'0 0.0
2018-Jan-12 01:30N 58°28' E 008°49'0 0.0
2018-Jan-12 01:00N 58°28' E 008°49'0 0.0
2018-Jan-12 00:30N 58°28' E 008°49'0 0.0
2018-Jan-12 00:00N 58°28' E 008°49'0 0.0
2018-Jan-11 23:30N 58°28' E 008°49'0 0.0
2018-Jan-11 23:00N 58°28' E 008°49'0 0.0
2018-Jan-11 22:30N 58°28' E 008°49'0 0.0
2018-Jan-11 22:00N 58°28' E 008°49'0 0.0
2018-Jan-11 21:30N 58°28' E 008°49'0 0.0
2018-Jan-11 21:00N 58°28' E 008°49'0 0.0
2018-Jan-11 20:30N 58°28' E 008°49'0 0.0
2018-Jan-11 20:00N 58°28' E 008°49'0 0.0
2018-Jan-11 19:30N 58°28' E 008°49'0 0.0
2018-Jan-11 19:00N 58°28' E 008°49'0 0.0
2018-Jan-11 18:30N 58°28' E 008°49'0 0.0
2018-Jan-11 18:00N 58°28' E 008°49'0 0.0
2018-Jan-11 17:30N 58°28' E 008°49'0 0.0
2018-Jan-11 17:00N 58°28' E 008°49'0 0.0
2018-Jan-11 16:30N 58°28' E 008°49'0 0.0
2018-Jan-11 16:00N 58°28' E 008°49'0 0.0
2018-Jan-11 15:30N 58°28' E 008°49'0 0.0
2018-Jan-11 15:00N 58°28' E 008°49'0 0.0
2018-Jan-11 14:30N 58°28' E 008°49'0 0.0
2018-Jan-11 14:00N 58°28' E 008°49'0 0.0
2018-Jan-11 13:30N 58°28' E 008°49'0 0.0
2018-Jan-11 13:00N 58°28' E 008°49'0 0.0
2018-Jan-11 12:30N 58°28' E 008°49'0 0.0
2018-Jan-11 12:00N 58°28' E 008°49'0 0.0
2018-Jan-11 11:30N 58°28' E 008°49'0 0.0
2018-Jan-11 11:00N 58°28' E 008°49'0 0.0
2018-Jan-11 10:29N 58°28' E 008°49'0 0.0
2018-Jan-11 09:59N 58°28' E 008°49'0 0.0
2018-Jan-11 09:24N 58°28' E 008°49'0 0.0
2018-Jan-11 09:00N 58°28' E 008°49'0 0.0
2018-Jan-11 08:30N 58°28' E 008°49'0 0.0
2018-Jan-11 08:00N 58°28' E 008°49'0 0.0
2018-Jan-11 07:30N 58°28' E 008°49'0 0.0
2018-Jan-11 07:00N 58°28' E 008°49'0 0.0
2018-Jan-11 06:30N 58°28' E 008°49'0 0.0
2018-Jan-11 06:00N 58°28' E 008°49'0 0.0
2018-Jan-11 05:30N 58°28' E 008°49'0 0.0
2018-Jan-11 05:00N 58°28' E 008°49'0 0.0
2018-Jan-11 04:30N 58°28' E 008°49'0 0.0
2018-Jan-11 04:00N 58°28' E 008°49'0 0.0
2018-Jan-11 03:30N 58°28' E 008°49'0 0.0
2018-Jan-11 03:00N 58°28' E 008°49'0 0.0
2018-Jan-11 02:30N 58°28' E 008°49'0 0.0
2018-Jan-11 02:00N 58°28' E 008°49'0 0.0
2018-Jan-11 01:25N 58°28' E 008°49'0 0.0
2018-Jan-11 00:58N 58°28' E 008°49'0 0.0
2018-Jan-11 00:29N 58°28' E 008°49'0 0.0
2018-Jan-11 00:00N 58°28' E 008°49'0 0.0
2018-Jan-10 23:30N 58°28' E 008°49'0 0.0
2018-Jan-10 23:00N 58°28' E 008°49'0 0.0
2018-Jan-10 22:30N 58°28' E 008°49'0 0.0
2018-Jan-10 22:00N 58°28' E 008°49'0 0.0
2018-Jan-10 21:30N 58°28' E 008°49'0 0.0
2018-Jan-10 21:00N 58°28' E 008°49'0 0.0
2018-Jan-10 20:30N 58°28' E 008°49'0 0.0
2018-Jan-10 20:00N 58°28' E 008°49'0 0.0
2018-Jan-10 19:30N 58°28' E 008°49'0 0.0
2018-Jan-10 18:59N 58°28' E 008°49'0 0.0
2018-Jan-10 18:29N 58°28' E 008°49'0 0.0
2018-Jan-10 17:59N 58°28' E 008°49'0 0.0
2018-Jan-10 17:29N 58°28' E 008°49'0 0.0
2018-Jan-10 16:59N 58°28' E 008°49'0 0.0
2018-Jan-10 16:29N 58°28' E 008°49'0 0.0
2018-Jan-10 15:59N 58°28' E 008°49'0 0.0
2018-Jan-10 15:29N 58°28' E 008°49'0 0.0
2018-Jan-10 14:59N 58°28' E 008°49'3 6.4
2018-Jan-10 14:30N 58°25' E 008°47'4 8.6
2018-Jan-10 14:00N 58°22' E 008°53'5 9.7
2018-Jan-10 13:30N 58°20' E 009°01'  

Dump ship's entire track history